Weather observations for the past three days for
Rogers - Rogers Executive Airport - Carter Field
Metric (Imperial)
Date Time (cdt) Wind (kph) Vis. (km) Weather Sky Cond. Temperature (ºC) Relative Humidity Wind Chill (°C) Heat Index (°C) Pressure Precipitation (cm)
Air Dwpt 6 hour altimeter (cm) sea level (mb) 1 hr 3 hr 6 hr
Max. Min.
31 10:58 SW 15 16.09 Fair CLR 33.3 18.3 41% 34 76.48 1017.5
31 09:58 S 24 16.09 Fair CLR 32.2 18.9 45% 34 76.48 1017.4
31 08:58 S 13 16.09 Fair CLR 28.3 18.9 57% 30 76.48 1017.6
31 07:58 S 11 16.09 Fair CLR 25.6 17.8 62% 27 76.43 1017.1
31 06:58 SE 9 16.09 Fair CLR 23.3 17.2 26.7 23.3 69% 76.38 1016.5
31 05:58 SE 7 16.09 Fair CLR 23.3 16.7 67% 76.35 1015.8
31 04:58 S 11 16.09 Fair CLR 24.4 16.7 62% 25 76.33 1015.5
31 03:58 SE 6 16.09 Fair CLR 24.4 16.1 60% 26 76.3 1015.3
31 02:58 SE 7 16.09 Fair CLR 25 16.1 58% 26 76.28 1014.9
31 01:58 SE 13 16.09 Fair CLR 26.1 16.1 54% 27 76.3 1015.1
31 00:58 SE 11 16.09 Fair CLR 26.7 15.6 35.6 26.7 51% 27 76.3 1015.3
30 23:58 SE 13 16.09 Fair CLR 27.8 16.1 49% 28 76.28 1015.0
30 22:58 S 19 16.09 Fair CLR 28.9 16.7 48% 29 76.25 1014.6
30 21:58 SE 17 16.09 Fair CLR 29.4 16.7 46% 30 76.23 1014.4
30 20:58 SE 19 16.09 Fair CLR 30.6 15.6 40% 30 76.2 1013.9
30 19:58 S 9 16.09 Fair CLR 32.2 15 35% 32 76.15 1013.5
30 18:58 S 19 16.09 Fair CLR 35.6 14.4 37.8 35 28% 35 76.15 1013.4
30 17:58 S 22 G 30 16.09 Mostly Cloudy BKN095 36.7 14.4 26% 36 76.15 1013.4
30 16:58 SE 15 16.09 A Few Clouds FEW095 37.2 13.9 25% 37 76.15 1013.3
30 15:58 SW 22 G 30 16.09 Fair CLR 37.8 14.4 25% 38 76.17 1013.6
30 14:58 SW 19 G 30 16.09 Fair CLR 36.7 15 27% 37 76.25 1014.4
30 13:58 Vrbl 9 G 26 16.09 Fair CLR 36.1 15.6 29% 36 76.28 1015.0
30 12:58 SW 20 G 33 16.09 Fair CLR 35 15.6 35.6 21.7 31% 35 76.33 1015.7
30 11:58 SW 20 16.09 Fair CLR 33.9 15 32% 34 76.4 1016.5
30 10:58 SW 22 G 35 16.09 Fair CLR 32.8 15.6 35% 33 76.43 1016.9
30 09:58 S 28 16.09 Fair CLR 30.6 16.1 42% 31 76.4 1016.8
30 08:58 S 15 16.09 Fair CLR 26.7 16.7 54% 27 76.4 1016.9
30 07:58 SE 13 16.09 Fair CLR 23.9 15.6 60% 25 76.4 1016.8
30 06:58 SE 6 16.09 Fair CLR 21.7 15 24.4 21.7 66% 76.38 1016.4
30 05:58 SE 7 16.09 Fair CLR 22.2 15 64% 76.35 1015.9
30 04:58 SE 11 16.09 Fair CLR 23.3 15 60% 76.33 1015.8
30 03:58 SE 13 16.09 Fair CLR 23.9 15 58% 25 76.33 1015.6
30 02:58 SE 15 16.09 Fair CLR 24.4 14.4 54% 26 76.33 1015.5
30 01:58 S 11 16.09 Fair CLR 24.4 14.4 54% 26 76.35 1015.9
30 00:58 SE 11 16.09 Fair CLR 25 14.4 33.9 25 52% 26 76.35 1016.1
29 23:58 SE 13 16.09 Fair CLR 26.1 15 50% 27 76.35 1016.0
29 22:58 SE 17 16.09 Fair CLR 26.7 16.1 52% 27 76.35 1015.9
29 21:58 SE 13 16.09 Fair CLR 27.8 16.1 49% 28 76.33 1015.8
29 20:58 SE 11 16.09 Fair CLR 29.4 16.7 46% 30 76.28 1015.1
29 19:58 S 15 16.09 Fair CLR 31.1 16.1 40% 31 76.25 1014.7
29 18:58 SE 13 16.09 Fair CLR 33.9 13.9 36.7 33.3 30% 33 76.25 1014.7
29 17:58 S 11 16.09 Fair CLR 35.6 13.3 26% 35 76.25 1014.8
29 16:58 Vrbl 9 16.09 Fair CLR 35.6 13.3 26% 35 76.25 1014.8
29 15:58 Vrbl 9 16.09 Fair CLR 36.1 13.3 25% 35 76.3 1015.3
29 14:58 Vrbl 11 16.09 Fair CLR 35 14.4 29% 34 76.35 1016.3
29 13:58 SW 15 16.09 Fair CLR 35.6 14.4 28% 35 76.43 1017.0
29 12:58 S 11 16.09 Fair CLR 33.3 15.6 33.3 20 34% 33 76.5 1018.1
29 11:58 Vrbl 11 16.09 Fair CLR 32.2 15.6 37% 32 76.56 1019.0
29 10:58 SE 9 16.09 Fair CLR 30.6 16.1 42% 31 76.58 1019.2
29 09:58 S 13 16.09 Fair CLR 28.3 16.7 49% 29 76.61 1019.4
29 08:58 SE 11 16.09 Fair CLR 25.6 16.7 58% 26 76.58 1019.2
29 07:58 SE 11 16.09 Fair CLR 22.2 16.1 68% 76.58 1019.2
29 06:58 SE 9 16.09 Fair CLR 20 15.6 22.8 19.4 76% 76.56 1019.0
29 05:58 SE 11 16.09 Fair CLR 20.6 15.6 73% 76.53 1018.5
29 04:58 SE 11 16.09 Fair CLR 20.6 15 70% 76.53 1018.4
29 03:58 SE 11 16.09 Fair CLR 21.1 16.7 76% 76.5 1018.1
29 02:58 E 13 16.09 Fair CLR 21.1 17.2 79% 76.5 1018.3
29 01:58 SE 9 16.09 Fair CLR 22.2 16.7 71% 76.53 1018.4
29 00:58 SE 9 16.09 Fair CLR 23.3 16.1 31.7 23.3 64% 76.53 1018.5
28 23:58 SE 9 16.09 Fair CLR 24.4 15 56% 26 76.56 1018.8
28 22:58 E 7 16.09 Fair CLR 24.4 15.6 58% 26 76.53 1018.6
28 21:58 E 9 16.09 Fair CLR 26.1 15.6 52% 27 76.5 1018.1
28 20:58 E 13 16.09 Fair CLR 27.2 14.4 45% 27 76.45 1017.5
28 19:58 E 6 16.09 Fair CLR 29.4 14.4 40% 29 76.4 1017.0
28 18:58 SE 13 16.09 Fair CLR 31.7 14.4 33.3 30.6 35% 31 76.4 1016.8
28 17:58 E 15 16.09 Fair CLR 32.2 13.9 33% 31 76.4 1016.9
28 16:58 E 9 16.09 Fair CLR 32.8 13.9 32% 32 76.43 1017.1
28 15:58 NE 13 16.09 Fair CLR 32.8 13.3 31% 32 76.45 1017.6
28 14:58 NE 15 G 31 16.09 Fair CLR 32.8 12.8 30% 32 76.5 1018.2
28 13:58 E 13 16.09 Fair CLR 31.1 13.9 35% 30 76.56 1018.9
28 12:58 E 11 16.09 Fair CLR 30.6 16.1 30.6 20.6 42% 31 76.61 1019.6
28 11:58 Vrbl 7 16.09 Fair CLR 28.9 15 43% 29 76.63 1020.1
Date Time (cdt) Wind (kph) Vis. (km) Weather Sky Cond. Air Dwpt Max. Min. Relative Humidity Wind Chill (°C) Heat Index (°C) altimeter (cm) sea level (mb) 1 hr 3 hr 6 hr
6 hour
Temperature (ºC) Pressure Precipitation (cm)